sensor_id;sensor_type;location;lat;lon;timestamp;P1;durP1;ratioP1;P2;durP2;ratioP2
15312;SDS011;7757;52.626;4.746;2023-05-27T00:00:13;7.15;;;2.08;;
15312;SDS011;7757;52.626;4.746;2023-05-27T00:02:40;9.98;;;2.55;;
15312;SDS011;7757;52.626;4.746;2023-05-27T00:05:05;9.88;;;2.42;;
15312;SDS011;7757;52.626;4.746;2023-05-27T00:07:31;8.60;;;1.85;;
15312;SDS011;7757;52.626;4.746;2023-05-27T00:09:59;8.60;;;1.80;;
15312;SDS011;7757;52.626;4.746;2023-05-27T00:12:25;6.55;;;1.83;;
15312;SDS011;7757;52.626;4.746;2023-05-27T00:14:50;9.15;;;2.00;;
15312;SDS011;7757;52.626;4.746;2023-05-27T00:17:16;9.10;;;2.10;;
15312;SDS011;7757;52.626;4.746;2023-05-27T00:19:41;11.85;;;2.53;;
15312;SDS011;7757;52.626;4.746;2023-05-27T00:22:08;9.27;;;2.03;;
15312;SDS011;7757;52.626;4.746;2023-05-27T00:24:33;9.00;;;1.88;;
15312;SDS011;7757;52.626;4.746;2023-05-27T00:27:05;9.20;;;1.90;;
15312;SDS011;7757;52.626;4.746;2023-05-27T00:29:31;8.20;;;1.90;;
15312;SDS011;7757;52.626;4.746;2023-05-27T00:31:57;8.38;;;2.17;;
15312;SDS011;7757;52.626;4.746;2023-05-27T00:34:22;9.25;;;2.13;;
15312;SDS011;7757;52.626;4.746;2023-05-27T00:36:47;7.85;;;1.90;;
15312;SDS011;7757;52.626;4.746;2023-05-27T00:39:13;11.23;;;2.60;;
15312;SDS011;7757;52.626;4.746;2023-05-27T00:41:38;6.68;;;1.77;;
15312;SDS011;7757;52.626;4.746;2023-05-27T00:44:12;9.90;;;1.98;;
15312;SDS011;7757;52.626;4.746;2023-05-27T00:46:41;9.15;;;1.92;;
15312;SDS011;7757;52.626;4.746;2023-05-27T00:49:06;6.85;;;1.80;;
15312;SDS011;7757;52.626;4.746;2023-05-27T00:51:35;9.52;;;2.17;;
15312;SDS011;7757;52.626;4.746;2023-05-27T00:54:04;9.18;;;2.00;;
15312;SDS011;7757;52.626;4.746;2023-05-27T00:56:30;8.55;;;1.90;;
15312;SDS011;7757;52.626;4.746;2023-05-27T00:59:00;7.35;;;1.77;;
15312;SDS011;7757;52.626;4.746;2023-05-27T01:01:25;6.85;;;1.67;;
15312;SDS011;7757;52.626;4.746;2023-05-27T01:03:51;11.23;;;2.10;;
15312;SDS011;7757;52.626;4.746;2023-05-27T01:06:25;8.38;;;1.88;;
15312;SDS011;7757;52.626;4.746;2023-05-27T01:14:10;8.20;;;1.90;;
15312;SDS011;7757;52.626;4.746;2023-05-27T01:16:38;7.65;;;1.83;;
15312;SDS011;7757;52.626;4.746;2023-05-27T01:19:27;8.07;;;1.90;;
15312;SDS011;7757;52.626;4.746;2023-05-27T01:21:55;8.52;;;2.00;;
15312;SDS011;7757;52.626;4.746;2023-05-27T01:24:23;8.50;;;1.95;;
15312;SDS011;7757;52.626;4.746;2023-05-27T01:26:49;8.32;;;1.90;;
15312;SDS011;7757;52.626;4.746;2023-05-27T01:29:14;6.22;;;1.60;;
15312;SDS011;7757;52.626;4.746;2023-05-27T01:34:08;7.72;;;2.10;;
15312;SDS011;7757;52.626;4.746;2023-05-27T01:37:09;8.63;;;1.90;;
15312;SDS011;7757;52.626;4.746;2023-05-27T01:39:36;7.67;;;1.80;;
15312;SDS011;7757;52.626;4.746;2023-05-27T01:42:02;6.80;;;1.70;;
15312;SDS011;7757;52.626;4.746;2023-05-27T01:44:31;6.10;;;1.70;;
15312;SDS011;7757;52.626;4.746;2023-05-27T01:46:58;7.25;;;1.73;;
15312;SDS011;7757;52.626;4.746;2023-05-27T01:49:29;7.45;;;1.70;;
15312;SDS011;7757;52.626;4.746;2023-05-27T01:51:55;7.45;;;1.80;;
15312;SDS011;7757;52.626;4.746;2023-05-27T01:54:21;8.60;;;1.80;;
15312;SDS011;7757;52.626;4.746;2023-05-27T01:56:50;6.72;;;1.70;;
15312;SDS011;7757;52.626;4.746;2023-05-27T01:59:18;9.00;;;1.83;;
15312;SDS011;7757;52.626;4.746;2023-05-27T02:01:47;7.05;;;1.60;;
15312;SDS011;7757;52.626;4.746;2023-05-27T02:04:12;6.57;;;1.45;;
15312;SDS011;7757;52.626;4.746;2023-05-27T02:06:41;7.65;;;1.83;;
15312;SDS011;7757;52.626;4.746;2023-05-27T02:09:06;9.43;;;1.80;;
15312;SDS011;7757;52.626;4.746;2023-05-27T02:11:32;6.47;;;1.60;;
15312;SDS011;7757;52.626;4.746;2023-05-27T02:14:00;6.82;;;1.70;;
15312;SDS011;7757;52.626;4.746;2023-05-27T02:16:29;6.38;;;1.60;;
15312;SDS011;7757;52.626;4.746;2023-05-27T02:18:55;10.02;;;1.67;;
15312;SDS011;7757;52.626;4.746;2023-05-27T02:21:24;7.85;;;2.03;;
15312;SDS011;7757;52.626;4.746;2023-05-27T02:23:49;9.02;;;1.90;;
15312;SDS011;7757;52.626;4.746;2023-05-27T02:26:15;6.72;;;1.70;;
15312;SDS011;7757;52.626;4.746;2023-05-27T02:28:40;6.57;;;1.73;;
15312;SDS011;7757;52.626;4.746;2023-05-27T02:31:06;7.65;;;1.77;;
15312;SDS011;7757;52.626;4.746;2023-05-27T02:33:31;6.70;;;1.67;;
15312;SDS011;7757;52.626;4.746;2023-05-27T02:35:56;8.57;;;1.90;;
15312;SDS011;7757;52.626;4.746;2023-05-27T02:38:22;8.45;;;1.95;;
15312;SDS011;7757;52.626;4.746;2023-05-27T02:40:47;6.75;;;2.00;;
15312;SDS011;7757;52.626;4.746;2023-05-27T02:43:12;7.35;;;1.77;;
15312;SDS011;7757;52.626;4.746;2023-05-27T02:45:41;7.97;;;1.52;;
15312;SDS011;7757;52.626;4.746;2023-05-27T02:48:07;7.57;;;1.80;;
15312;SDS011;7757;52.626;4.746;2023-05-27T02:50:32;8.60;;;1.80;;
15312;SDS011;7757;52.626;4.746;2023-05-27T02:52:58;7.28;;;1.70;;
15312;SDS011;7757;52.626;4.746;2023-05-27T02:55:23;6.88;;;1.60;;
15312;SDS011;7757;52.626;4.746;2023-05-27T02:57:52;11.35;;;1.98;;
15312;SDS011;7757;52.626;4.746;2023-05-27T03:00:17;6.95;;;1.80;;
15312;SDS011;7757;52.626;4.746;2023-05-27T03:02:43;5.97;;;1.50;;
15312;SDS011;7757;52.626;4.746;2023-05-27T03:05:08;8.88;;;1.88;;
15312;SDS011;7757;52.626;4.746;2023-05-27T03:07:34;7.10;;;1.80;;
15312;SDS011;7757;52.626;4.746;2023-05-27T03:09:59;7.07;;;1.73;;
15312;SDS011;7757;52.626;4.746;2023-05-27T03:12:25;8.68;;;1.60;;
15312;SDS011;7757;52.626;4.746;2023-05-27T03:14:53;8.18;;;1.88;;
15312;SDS011;7757;52.626;4.746;2023-05-27T03:17:19;9.80;;;2.00;;
15312;SDS011;7757;52.626;4.746;2023-05-27T03:19:45;5.78;;;1.67;;
15312;SDS011;7757;52.626;4.746;2023-05-27T03:22:13;6.82;;;1.80;;
15312;SDS011;7757;52.626;4.746;2023-05-27T03:24:42;8.57;;;1.77;;
15312;SDS011;7757;52.626;4.746;2023-05-27T03:27:08;8.15;;;1.98;;
15312;SDS011;7757;52.626;4.746;2023-05-27T03:29:33;8.13;;;1.77;;
15312;SDS011;7757;52.626;4.746;2023-05-27T03:31:59;6.88;;;1.70;;
15312;SDS011;7757;52.626;4.746;2023-05-27T03:34:24;7.80;;;1.80;;
15312;SDS011;7757;52.626;4.746;2023-05-27T03:36:50;8.25;;;1.80;;
15312;SDS011;7757;52.626;4.746;2023-05-27T03:39:18;7.72;;;1.80;;
15312;SDS011;7757;52.626;4.746;2023-05-27T03:41:44;9.95;;;1.90;;
15312;SDS011;7757;52.626;4.746;2023-05-27T03:44:13;5.80;;;1.45;;
15312;SDS011;7757;52.626;4.746;2023-05-27T03:46:38;5.88;;;1.48;;
15312;SDS011;7757;52.626;4.746;2023-05-27T03:49:03;9.00;;;1.83;;
15312;SDS011;7757;52.626;4.746;2023-05-27T03:51:29;7.82;;;1.70;;
15312;SDS011;7757;52.626;4.746;2023-05-27T03:53:54;5.85;;;1.40;;
15312;SDS011;7757;52.626;4.746;2023-05-27T03:56:20;7.60;;;1.58;;
15312;SDS011;7757;52.626;4.746;2023-05-27T03:58:49;8.35;;;1.65;;
15312;SDS011;7757;52.626;4.746;2023-05-27T04:01:18;7.22;;;1.70;;
15312;SDS011;7757;52.626;4.746;2023-05-27T04:03:45;7.82;;;1.60;;
15312;SDS011;7757;52.626;4.746;2023-05-27T04:06:17;9.95;;;2.15;;
15312;SDS011;7757;52.626;4.746;2023-05-27T04:08:42;6.43;;;1.73;;
15312;SDS011;7757;52.626;4.746;2023-05-27T04:11:11;7.30;;;1.70;;
15312;SDS011;7757;52.626;4.746;2023-05-27T04:13:40;6.22;;;1.70;;
15312;SDS011;7757;52.626;4.746;2023-05-27T04:16:06;7.30;;;1.70;;
15312;SDS011;7757;52.626;4.746;2023-05-27T04:18:32;7.63;;;1.60;;
15312;SDS011;7757;52.626;4.746;2023-05-27T04:20:58;7.22;;;1.63;;
15312;SDS011;7757;52.626;4.746;2023-05-27T04:23:28;7.88;;;2.15;;
15312;SDS011;7757;52.626;4.746;2023-05-27T04:25:56;6.90;;;1.80;;
15312;SDS011;7757;52.626;4.746;2023-05-27T04:28:21;6.35;;;1.60;;
15312;SDS011;7757;52.626;4.746;2023-05-27T04:30:50;7.63;;;1.90;;
15312;SDS011;7757;52.626;4.746;2023-05-27T04:33:16;6.93;;;1.50;;
15312;SDS011;7757;52.626;4.746;2023-05-27T04:35:42;8.10;;;1.95;;
15312;SDS011;7757;52.626;4.746;2023-05-27T04:38:09;9.88;;;2.35;;
15312;SDS011;7757;52.626;4.746;2023-05-27T04:40:35;7.53;;;1.77;;
15312;SDS011;7757;52.626;4.746;2023-05-27T04:43:01;7.60;;;1.67;;
15312;SDS011;7757;52.626;4.746;2023-05-27T04:45:29;10.32;;;1.80;;
15312;SDS011;7757;52.626;4.746;2023-05-27T04:47:55;8.20;;;1.50;;
15312;SDS011;7757;52.626;4.746;2023-05-27T04:50:26;8.68;;;1.60;;
15312;SDS011;7757;52.626;4.746;2023-05-27T04:52:51;7.57;;;1.70;;
15312;SDS011;7757;52.626;4.746;2023-05-27T04:55:21;7.97;;;1.70;;
15312;SDS011;7757;52.626;4.746;2023-05-27T04:57:46;9.43;;;1.80;;
15312;SDS011;7757;52.626;4.746;2023-05-27T05:00:12;6.50;;;1.70;;
15312;SDS011;7757;52.626;4.746;2023-05-27T05:02:40;8.05;;;1.77;;
15312;SDS011;7757;52.626;4.746;2023-05-27T05:05:07;7.22;;;1.80;;
15312;SDS011;7757;52.626;4.746;2023-05-27T05:07:46;4.95;;;1.40;;
15312;SDS011;7757;52.626;4.746;2023-05-27T05:10:11;7.07;;;1.70;;
15312;SDS011;7757;52.626;4.746;2023-05-27T05:12:37;7.18;;;1.63;;
15312;SDS011;7757;52.626;4.746;2023-05-27T05:15:03;8.27;;;1.85;;
15312;SDS011;7757;52.626;4.746;2023-05-27T05:17:32;6.00;;;1.50;;
15312;SDS011;7757;52.626;4.746;2023-05-27T05:19:58;8.50;;;2.10;;
15312;SDS011;7757;52.626;4.746;2023-05-27T05:22:23;8.05;;;1.80;;
15312;SDS011;7757;52.626;4.746;2023-05-27T05:24:49;9.68;;;1.83;;
15312;SDS011;7757;52.626;4.746;2023-05-27T05:27:15;8.30;;;1.77;;
15312;SDS011;7757;52.626;4.746;2023-05-27T05:29:43;9.60;;;1.70;;
15312;SDS011;7757;52.626;4.746;2023-05-27T05:32:09;10.00;;;1.98;;
15312;SDS011;7757;52.626;4.746;2023-05-27T05:34:38;6.93;;;1.70;;
15312;SDS011;7757;52.626;4.746;2023-05-27T05:37:06;10.38;;;2.10;;
15312;SDS011;7757;52.626;4.746;2023-05-27T05:39:32;9.10;;;1.95;;
15312;SDS011;7757;52.626;4.746;2023-05-27T05:42:03;8.38;;;1.92;;
15312;SDS011;7757;52.626;4.746;2023-05-27T05:44:32;7.70;;;1.75;;
15312;SDS011;7757;52.626;4.746;2023-05-27T05:46:59;10.32;;;2.17;;
15312;SDS011;7757;52.626;4.746;2023-05-27T05:49:24;10.05;;;2.08;;
15312;SDS011;7757;52.626;4.746;2023-05-27T05:51:50;7.80;;;1.65;;
15312;SDS011;7757;52.626;4.746;2023-05-27T05:54:18;6.50;;;1.50;;
15312;SDS011;7757;52.626;4.746;2023-05-27T05:56:44;8.27;;;2.00;;
15312;SDS011;7757;52.626;4.746;2023-05-27T05:59:12;9.00;;;1.80;;
15312;SDS011;7757;52.626;4.746;2023-05-27T06:01:37;7.53;;;1.70;;
15312;SDS011;7757;52.626;4.746;2023-05-27T06:04:03;9.18;;;1.90;;
15312;SDS011;7757;52.626;4.746;2023-05-27T06:06:29;8.23;;;1.75;;
15312;SDS011;7757;52.626;4.746;2023-05-27T06:09:04;8.55;;;1.75;;
15312;SDS011;7757;52.626;4.746;2023-05-27T06:11:30;7.00;;;1.63;;
15312;SDS011;7757;52.626;4.746;2023-05-27T06:13:59;7.88;;;1.60;;
15312;SDS011;7757;52.626;4.746;2023-05-27T06:16:24;7.68;;;1.77;;
15312;SDS011;7757;52.626;4.746;2023-05-27T06:18:50;9.75;;;1.80;;
15312;SDS011;7757;52.626;4.746;2023-05-27T06:21:17;13.13;;;2.08;;
15312;SDS011;7757;52.626;4.746;2023-05-27T06:23:42;6.63;;;1.63;;
15312;SDS011;7757;52.626;4.746;2023-05-27T06:26:08;9.93;;;2.00;;
15312;SDS011;7757;52.626;4.746;2023-05-27T06:28:33;7.82;;;1.67;;
15312;SDS011;7757;52.626;4.746;2023-05-27T06:30:58;11.80;;;1.98;;
15312;SDS011;7757;52.626;4.746;2023-05-27T06:33:24;9.52;;;1.80;;
15312;SDS011;7757;52.626;4.746;2023-05-27T06:35:49;8.73;;;1.98;;
15312;SDS011;7757;52.626;4.746;2023-05-27T06:38:15;7.50;;;1.63;;
15312;SDS011;7757;52.626;4.746;2023-05-27T06:40:40;10.55;;;2.38;;
15312;SDS011;7757;52.626;4.746;2023-05-27T06:43:12;9.95;;;1.83;;
15312;SDS011;7757;52.626;4.746;2023-05-27T06:45:40;7.75;;;1.60;;
15312;SDS011;7757;52.626;4.746;2023-05-27T06:48:09;9.00;;;1.90;;
15312;SDS011;7757;52.626;4.746;2023-05-27T06:50:34;10.45;;;2.03;;
15312;SDS011;7757;52.626;4.746;2023-05-27T06:52:59;9.18;;;1.80;;
15312;SDS011;7757;52.626;4.746;2023-05-27T06:55:31;9.93;;;1.98;;
15312;SDS011;7757;52.626;4.746;2023-05-27T06:57:59;9.60;;;1.63;;
15312;SDS011;7757;52.626;4.746;2023-05-27T07:00:28;7.65;;;1.65;;
15312;SDS011;7757;52.626;4.746;2023-05-27T07:02:53;7.95;;;1.63;;
15312;SDS011;7757;52.626;4.746;2023-05-27T07:05:18;7.32;;;1.70;;
15312;SDS011;7757;52.626;4.746;2023-05-27T07:07:44;7.00;;;1.75;;
15312;SDS011;7757;52.626;4.746;2023-05-27T07:10:09;8.88;;;1.80;;
15312;SDS011;7757;52.626;4.746;2023-05-27T07:12:35;5.97;;;1.60;;
15312;SDS011;7757;52.626;4.746;2023-05-27T07:15:03;7.40;;;1.63;;
15312;SDS011;7757;52.626;4.746;2023-05-27T07:17:29;7.72;;;1.63;;
15312;SDS011;7757;52.626;4.746;2023-05-27T07:19:58;7.57;;;1.70;;
15312;SDS011;7757;52.626;4.746;2023-05-27T07:22:26;9.40;;;2.00;;
15312;SDS011;7757;52.626;4.746;2023-05-27T07:24:52;7.80;;;1.75;;
15312;SDS011;7757;52.626;4.746;2023-05-27T07:27:20;7.05;;;1.48;;
15312;SDS011;7757;52.626;4.746;2023-05-27T07:29:45;11.63;;;1.90;;
15312;SDS011;7757;52.626;4.746;2023-05-27T07:32:11;8.13;;;1.73;;
15312;SDS011;7757;52.626;4.746;2023-05-27T07:34:36;7.22;;;1.77;;
15312;SDS011;7757;52.626;4.746;2023-05-27T07:37:01;7.43;;;1.70;;
15312;SDS011;7757;52.626;4.746;2023-05-27T07:39:27;9.35;;;2.08;;
15312;SDS011;7757;52.626;4.746;2023-05-27T07:41:52;8.63;;;1.70;;
15312;SDS011;7757;52.626;4.746;2023-05-27T07:44:18;8.00;;;1.80;;
15312;SDS011;7757;52.626;4.746;2023-05-27T07:46:43;11.18;;;2.08;;
15312;SDS011;7757;52.626;4.746;2023-05-27T07:49:09;8.60;;;1.92;;
15312;SDS011;7757;52.626;4.746;2023-05-27T07:51:34;8.23;;;1.80;;
15312;SDS011;7757;52.626;4.746;2023-05-27T07:54:04;8.27;;;1.80;;
15312;SDS011;7757;52.626;4.746;2023-05-27T07:56:32;8.15;;;1.85;;
15312;SDS011;7757;52.626;4.746;2023-05-27T07:58:59;6.15;;;1.50;;
15312;SDS011;7757;52.626;4.746;2023-05-27T08:01:25;5.03;;;1.50;;
15312;SDS011;7757;52.626;4.746;2023-05-27T08:03:55;9.90;;;1.88;;
15312;SDS011;7757;52.626;4.746;2023-05-27T08:06:21;7.57;;;1.70;;
15312;SDS011;7757;52.626;4.746;2023-05-27T08:08:46;7.53;;;1.67;;
15312;SDS011;7757;52.626;4.746;2023-05-27T08:11:12;7.80;;;1.83;;
15312;SDS011;7757;52.626;4.746;2023-05-27T08:13:38;6.00;;;1.40;;
15312;SDS011;7757;52.626;4.746;2023-05-27T08:16:03;9.13;;;1.80;;
15312;SDS011;7757;52.626;4.746;2023-05-27T08:18:31;8.27;;;1.88;;
15312;SDS011;7757;52.626;4.746;2023-05-27T08:20:57;10.25;;;2.20;;
15312;SDS011;7757;52.626;4.746;2023-05-27T08:23:22;9.65;;;1.80;;
15312;SDS011;7757;52.626;4.746;2023-05-27T08:25:47;4.85;;;1.63;;
15312;SDS011;7757;52.626;4.746;2023-05-27T08:28:19;11.30;;;2.35;;
15312;SDS011;7757;52.626;4.746;2023-05-27T08:30:44;7.55;;;1.63;;
15312;SDS011;7757;52.626;4.746;2023-05-27T08:33:13;8.52;;;1.95;;
15312;SDS011;7757;52.626;4.746;2023-05-27T08:35:38;9.23;;;1.75;;
15312;SDS011;7757;52.626;4.746;2023-05-27T08:38:07;8.13;;;1.60;;
15312;SDS011;7757;52.626;4.746;2023-05-27T08:40:32;5.38;;;1.35;;
15312;SDS011;7757;52.626;4.746;2023-05-27T08:42:57;7.43;;;1.80;;
15312;SDS011;7757;52.626;4.746;2023-05-27T08:45:23;10.88;;;1.98;;
15312;SDS011;7757;52.626;4.746;2023-05-27T08:47:48;8.63;;;1.70;;
15312;SDS011;7757;52.626;4.746;2023-05-27T08:50:21;10.15;;;2.03;;
15312;SDS011;7757;52.626;4.746;2023-05-27T08:52:47;8.68;;;1.88;;
15312;SDS011;7757;52.626;4.746;2023-05-27T08:55:15;9.27;;;2.03;;
15312;SDS011;7757;52.626;4.746;2023-05-27T08:57:50;6.40;;;1.60;;
15312;SDS011;7757;52.626;4.746;2023-05-27T09:00:17;7.40;;;1.77;;
15312;SDS011;7757;52.626;4.746;2023-05-27T09:02:42;6.97;;;1.80;;
15312;SDS011;7757;52.626;4.746;2023-05-27T09:05:11;6.75;;;1.70;;
15312;SDS011;7757;52.626;4.746;2023-05-27T09:07:37;8.25;;;2.03;;
15312;SDS011;7757;52.626;4.746;2023-05-27T09:10:03;8.88;;;2.00;;
15312;SDS011;7757;52.626;4.746;2023-05-27T09:12:30;8.43;;;1.83;;
15312;SDS011;7757;52.626;4.746;2023-05-27T09:14:56;7.50;;;1.60;;
15312;SDS011;7757;52.626;4.746;2023-05-27T09:17:24;10.15;;;2.08;;
15312;SDS011;7757;52.626;4.746;2023-05-27T09:19:50;9.20;;;1.80;;
15312;SDS011;7757;52.626;4.746;2023-05-27T09:22:31;7.65;;;1.70;;
15312;SDS011;7757;52.626;4.746;2023-05-27T09:24:56;12.20;;;2.25;;
15312;SDS011;7757;52.626;4.746;2023-05-27T09:27:27;8.23;;;1.75;;
15312;SDS011;7757;52.626;4.746;2023-05-27T09:29:57;8.40;;;1.80;;
15312;SDS011;7757;52.626;4.746;2023-05-27T09:32:31;10.38;;;2.17;;
15312;SDS011;7757;52.626;4.746;2023-05-27T09:34:58;10.35;;;1.90;;
15312;SDS011;7757;52.626;4.746;2023-05-27T09:37:30;8.55;;;1.80;;
15312;SDS011;7757;52.626;4.746;2023-05-27T09:40:15;10.07;;;2.05;;
15312;SDS011;7757;52.626;4.746;2023-05-27T09:42:41;6.95;;;1.65;;
15312;SDS011;7757;52.626;4.746;2023-05-27T09:45:09;8.43;;;1.98;;
15312;SDS011;7757;52.626;4.746;2023-05-27T09:47:38;10.05;;;2.00;;
15312;SDS011;7757;52.626;4.746;2023-05-27T09:50:05;8.52;;;1.98;;
15312;SDS011;7757;52.626;4.746;2023-05-27T09:52:47;9.82;;;2.03;;
15312;SDS011;7757;52.626;4.746;2023-05-27T09:55:13;8.73;;;1.98;;
15312;SDS011;7757;52.626;4.746;2023-05-27T09:57:39;9.27;;;1.98;;
15312;SDS011;7757;52.626;4.746;2023-05-27T10:00:06;8.88;;;2.00;;
15312;SDS011;7757;52.626;4.746;2023-05-27T10:02:46;7.82;;;1.98;;
15312;SDS011;7757;52.626;4.746;2023-05-27T10:05:13;7.35;;;1.85;;
15312;SDS011;7757;52.626;4.746;2023-05-27T10:07:42;10.15;;;2.08;;
15312;SDS011;7757;52.626;4.746;2023-05-27T10:10:16;8.27;;;2.13;;
15312;SDS011;7757;52.626;4.746;2023-05-27T10:12:46;8.00;;;1.80;;
15312;SDS011;7757;52.626;4.746;2023-05-27T10:15:23;8.07;;;1.88;;
15312;SDS011;7757;52.626;4.746;2023-05-27T10:18:03;10.40;;;2.22;;
15312;SDS011;7757;52.626;4.746;2023-05-27T10:20:48;7.32;;;1.90;;
15312;SDS011;7757;52.626;4.746;2023-05-27T10:25:55;7.45;;;2.00;;
15312;SDS011;7757;52.626;4.746;2023-05-27T10:31:02;8.93;;;1.95;;
15312;SDS011;7757;52.626;4.746;2023-05-27T10:33:29;11.85;;;2.40;;
15312;SDS011;7757;52.626;4.746;2023-05-27T10:35:55;9.15;;;1.98;;
15312;SDS011;7757;52.626;4.746;2023-05-27T10:38:21;10.18;;;2.15;;
15312;SDS011;7757;52.626;4.746;2023-05-27T10:40:47;9.35;;;2.10;;
15312;SDS011;7757;52.626;4.746;2023-05-27T10:43:31;10.63;;;2.38;;
15312;SDS011;7757;52.626;4.746;2023-05-27T10:46:04;10.55;;;2.10;;
15312;SDS011;7757;52.626;4.746;2023-05-27T10:48:33;9.45;;;2.10;;
15312;SDS011;7757;52.626;4.746;2023-05-27T10:50:59;11.00;;;2.33;;
15312;SDS011;7757;52.626;4.746;2023-05-27T10:53:31;8.13;;;2.05;;
15312;SDS011;7757;52.626;4.746;2023-05-27T10:55:57;9.85;;;2.25;;
15312;SDS011;7757;52.626;4.746;2023-05-27T10:58:24;9.10;;;2.10;;
15312;SDS011;7757;52.626;4.746;2023-05-27T11:00:51;10.35;;;2.20;;
15312;SDS011;7757;52.626;4.746;2023-05-27T11:03:21;10.32;;;2.22;;
15312;SDS011;7757;52.626;4.746;2023-05-27T11:05:56;8.50;;;2.15;;
15312;SDS011;7757;52.626;4.746;2023-05-27T11:08:26;9.13;;;2.40;;
15312;SDS011;7757;52.626;4.746;2023-05-27T11:10:57;11.45;;;2.33;;
15312;SDS011;7757;52.626;4.746;2023-05-27T11:13:29;8.75;;;2.25;;
15312;SDS011;7757;52.626;4.746;2023-05-27T11:16:03;12.63;;;2.15;;
15312;SDS011;7757;52.626;4.746;2023-05-27T11:18:45;8.90;;;2.28;;
15312;SDS011;7757;52.626;4.746;2023-05-27T11:21:15;8.52;;;2.05;;
15312;SDS011;7757;52.626;4.746;2023-05-27T11:23:42;10.43;;;2.47;;
15312;SDS011;7757;52.626;4.746;2023-05-27T11:26:15;9.98;;;2.50;;
15312;SDS011;7757;52.626;4.746;2023-05-27T11:28:44;12.75;;;2.75;;
15312;SDS011;7757;52.626;4.746;2023-05-27T11:31:11;11.07;;;2.47;;
15312;SDS011;7757;52.626;4.746;2023-05-27T11:33:44;10.48;;;2.10;;
15312;SDS011;7757;52.626;4.746;2023-05-27T11:36:16;9.02;;;1.98;;
15312;SDS011;7757;52.626;4.746;2023-05-27T11:41:19;10.73;;;2.20;;
15312;SDS011;7757;52.626;4.746;2023-05-27T11:49:01;11.63;;;2.72;;
15312;SDS011;7757;52.626;4.746;2023-05-27T11:51:28;13.48;;;2.75;;
15312;SDS011;7757;52.626;4.746;2023-05-27T11:53:55;7.78;;;2.10;;
15312;SDS011;7757;52.626;4.746;2023-05-27T11:56:20;10.40;;;2.65;;
15312;SDS011;7757;52.626;4.746;2023-05-27T11:58:49;11.65;;;3.00;;
15312;SDS011;7757;52.626;4.746;2023-05-27T12:01:14;11.40;;;2.72;;
15312;SDS011;7757;52.626;4.746;2023-05-27T12:03:40;10.13;;;2.70;;
15312;SDS011;7757;52.626;4.746;2023-05-27T12:06:09;11.82;;;2.40;;
15312;SDS011;7757;52.626;4.746;2023-05-27T12:08:38;11.43;;;2.60;;
15312;SDS011;7757;52.626;4.746;2023-05-27T12:11:05;14.43;;;2.97;;
15312;SDS011;7757;52.626;4.746;2023-05-27T12:13:31;10.45;;;2.13;;
15312;SDS011;7757;52.626;4.746;2023-05-27T12:16:00;10.48;;;2.42;;
15312;SDS011;7757;52.626;4.746;2023-05-27T12:18:25;12.32;;;2.78;;
15312;SDS011;7757;52.626;4.746;2023-05-27T12:20:50;9.70;;;2.30;;
15312;SDS011;7757;52.626;4.746;2023-05-27T12:23:16;11.88;;;2.95;;
15312;SDS011;7757;52.626;4.746;2023-05-27T12:25:43;11.05;;;2.55;;
15312;SDS011;7757;52.626;4.746;2023-05-27T12:28:08;9.88;;;2.75;;
15312;SDS011;7757;52.626;4.746;2023-05-27T12:30:35;10.82;;;2.63;;
15312;SDS011;7757;52.626;4.746;2023-05-27T12:33:02;8.82;;;2.30;;
15312;SDS011;7757;52.626;4.746;2023-05-27T12:35:31;14.32;;;2.60;;
15312;SDS011;7757;52.626;4.746;2023-05-27T12:37:57;11.00;;;2.70;;
15312;SDS011;7757;52.626;4.746;2023-05-27T12:40:29;11.38;;;3.03;;
15312;SDS011;7757;52.626;4.746;2023-05-27T12:42:57;9.82;;;2.55;;
15312;SDS011;7757;52.626;4.746;2023-05-27T12:45:26;14.80;;;3.05;;
15312;SDS011;7757;52.626;4.746;2023-05-27T12:47:52;12.27;;;2.22;;
15312;SDS011;7757;52.626;4.746;2023-05-27T12:50:17;15.07;;;3.03;;
15312;SDS011;7757;52.626;4.746;2023-05-27T12:52:43;9.90;;;2.53;;
15312;SDS011;7757;52.626;4.746;2023-05-27T12:55:16;10.57;;;2.58;;
15312;SDS011;7757;52.626;4.746;2023-05-27T12:57:49;11.88;;;2.63;;
15312;SDS011;7757;52.626;4.746;2023-05-27T13:00:16;9.27;;;2.38;;
15312;SDS011;7757;52.626;4.746;2023-05-27T13:02:43;8.73;;;2.40;;
15312;SDS011;7757;52.626;4.746;2023-05-27T13:05:10;9.60;;;2.55;;
15312;SDS011;7757;52.626;4.746;2023-05-27T13:07:39;11.38;;;2.38;;
15312;SDS011;7757;52.626;4.746;2023-05-27T13:10:05;9.90;;;2.38;;
15312;SDS011;7757;52.626;4.746;2023-05-27T13:12:33;10.82;;;2.72;;
15312;SDS011;7757;52.626;4.746;2023-05-27T13:15:05;10.60;;;2.85;;
15312;SDS011;7757;52.626;4.746;2023-05-27T13:17:33;9.25;;;2.35;;
15312;SDS011;7757;52.626;4.746;2023-05-27T13:19:59;11.43;;;2.50;;
15312;SDS011;7757;52.626;4.746;2023-05-27T13:22:24;12.23;;;3.03;;
15312;SDS011;7757;52.626;4.746;2023-05-27T13:24:50;9.10;;;2.33;;
15312;SDS011;7757;52.626;4.746;2023-05-27T13:27:15;13.70;;;2.85;;
15312;SDS011;7757;52.626;4.746;2023-05-27T13:29:47;14.65;;;3.22;;
15312;SDS011;7757;52.626;4.746;2023-05-27T13:32:12;11.30;;;2.67;;
15312;SDS011;7757;52.626;4.746;2023-05-27T13:34:38;12.27;;;2.92;;
15312;SDS011;7757;52.626;4.746;2023-05-27T13:37:03;12.50;;;3.00;;
15312;SDS011;7757;52.626;4.746;2023-05-27T13:39:35;10.90;;;2.75;;
15312;SDS011;7757;52.626;4.746;2023-05-27T13:42:01;14.27;;;3.75;;
15312;SDS011;7757;52.626;4.746;2023-05-27T13:44:26;13.38;;;3.08;;
15312;SDS011;7757;52.626;4.746;2023-05-27T13:46:52;9.73;;;2.17;;
15312;SDS011;7757;52.626;4.746;2023-05-27T13:49:17;13.80;;;3.30;;
15312;SDS011;7757;52.626;4.746;2023-05-27T13:51:43;10.50;;;2.47;;
15312;SDS011;7757;52.626;4.746;2023-05-27T13:54:12;12.80;;;2.88;;
15312;SDS011;7757;52.626;4.746;2023-05-27T13:56:44;13.50;;;2.90;;
15312;SDS011;7757;52.626;4.746;2023-05-27T13:59:15;11.23;;;2.60;;
15312;SDS011;7757;52.626;4.746;2023-05-27T14:01:44;9.82;;;2.40;;
15312;SDS011;7757;52.626;4.746;2023-05-27T14:04:15;12.68;;;2.83;;
15312;SDS011;7757;52.626;4.746;2023-05-27T14:06:41;12.55;;;2.88;;
15312;SDS011;7757;52.626;4.746;2023-05-27T14:09:06;9.70;;;2.53;;
15312;SDS011;7757;52.626;4.746;2023-05-27T14:11:32;9.70;;;2.30;;
15312;SDS011;7757;52.626;4.746;2023-05-27T14:13:57;8.63;;;1.98;;
15312;SDS011;7757;52.626;4.746;2023-05-27T14:16:24;11.70;;;2.65;;
15312;SDS011;7757;52.626;4.746;2023-05-27T14:18:52;10.57;;;2.65;;
15312;SDS011;7757;52.626;4.746;2023-05-27T14:21:18;10.02;;;2.40;;
15312;SDS011;7757;52.626;4.746;2023-05-27T14:23:43;10.50;;;2.40;;
15312;SDS011;7757;52.626;4.746;2023-05-27T14:26:15;11.73;;;2.70;;
15312;SDS011;7757;52.626;4.746;2023-05-27T14:28:41;12.15;;;2.58;;
15312;SDS011;7757;52.626;4.746;2023-05-27T14:31:06;11.30;;;3.00;;
15312;SDS011;7757;52.626;4.746;2023-05-27T14:33:31;12.23;;;2.92;;
15312;SDS011;7757;52.626;4.746;2023-05-27T14:36:00;11.40;;;2.67;;
15312;SDS011;7757;52.626;4.746;2023-05-27T14:38:25;12.38;;;2.97;;
15312;SDS011;7757;52.626;4.746;2023-05-27T14:40:51;14.50;;;3.35;;
15312;SDS011;7757;52.626;4.746;2023-05-27T14:43:16;12.27;;;2.80;;
15312;SDS011;7757;52.626;4.746;2023-05-27T14:45:42;11.70;;;3.05;;
15312;SDS011;7757;52.626;4.746;2023-05-27T14:48:10;14.80;;;3.08;;
15312;SDS011;7757;52.626;4.746;2023-05-27T14:50:35;10.93;;;3.40;;
15312;SDS011;7757;52.626;4.746;2023-05-27T14:53:02;11.75;;;2.80;;
15312;SDS011;7757;52.626;4.746;2023-05-27T14:55:31;12.57;;;2.80;;
15312;SDS011;7757;52.626;4.746;2023-05-27T14:57:56;13.77;;;3.13;;
15312;SDS011;7757;52.626;4.746;2023-05-27T15:00:21;9.98;;;2.65;;
15312;SDS011;7757;52.626;4.746;2023-05-27T15:02:47;12.50;;;3.33;;
15312;SDS011;7757;52.626;4.746;2023-05-27T15:05:15;12.75;;;2.80;;
15312;SDS011;7757;52.626;4.746;2023-05-27T15:07:41;14.60;;;3.53;;
15312;SDS011;7757;52.626;4.746;2023-05-27T15:10:06;10.95;;;2.97;;
15312;SDS011;7757;52.626;4.746;2023-05-27T15:12:47;13.77;;;3.17;;
15312;SDS011;7757;52.626;4.746;2023-05-27T15:15:14;10.27;;;3.00;;
15312;SDS011;7757;52.626;4.746;2023-05-27T15:17:41;12.55;;;3.22;;
15312;SDS011;7757;52.626;4.746;2023-05-27T15:20:13;13.27;;;3.30;;